sensor_id;sensor_type;location;lat;lon;timestamp;pressure;altitude;pressure_sealevel;temperature;humidity
36190;BME280;22232;50.914;13.858;2023-08-17T00:00:13;98107.16;;;20.77;100.00
36190;BME280;22232;50.914;13.858;2023-08-17T00:02:41;98105.31;;;20.72;100.00
36190;BME280;22232;50.914;13.858;2023-08-17T00:05:09;98107.88;;;20.64;100.00
36190;BME280;22232;50.914;13.858;2023-08-17T00:07:37;98114.66;;;20.61;100.00
36190;BME280;22232;50.914;13.858;2023-08-17T00:10:05;98105.00;;;20.50;100.00
36190;BME280;22232;50.914;13.858;2023-08-17T00:12:33;98100.47;;;20.45;100.00
36190;BME280;22232;50.914;13.858;2023-08-17T00:15:01;98096.41;;;20.43;100.00
36190;BME280;22232;50.914;13.858;2023-08-17T00:17:28;98083.38;;;20.45;100.00
36190;BME280;22232;50.914;13.858;2023-08-17T00:19:57;98078.19;;;20.48;100.00
36190;BME280;22232;50.914;13.858;2023-08-17T00:22:25;98084.44;;;20.49;100.00
36190;BME280;22232;50.914;13.858;2023-08-17T00:24:53;98079.81;;;20.49;100.00
36190;BME280;22232;50.914;13.858;2023-08-17T00:27:21;98082.28;;;20.46;100.00
36190;BME280;22232;50.914;13.858;2023-08-17T00:29:48;98082.34;;;20.40;100.00
36190;BME280;22232;50.914;13.858;2023-08-17T00:32:17;98079.19;;;20.33;100.00
36190;BME280;22232;50.914;13.858;2023-08-17T00:34:46;98067.59;;;20.28;100.00
36190;BME280;22232;50.914;13.858;2023-08-17T00:37:13;98070.81;;;20.30;100.00
36190;BME280;22232;50.914;13.858;2023-08-17T00:39:41;98069.53;;;20.22;100.00
36190;BME280;22232;50.914;13.858;2023-08-17T00:42:09;98071.78;;;20.15;100.00
36190;BME280;22232;50.914;13.858;2023-08-17T00:44:37;98069.66;;;20.12;100.00
36190;BME280;22232;50.914;13.858;2023-08-17T00:47:05;98066.41;;;20.10;100.00
36190;BME280;22232;50.914;13.858;2023-08-17T00:49:34;98059.97;;;20.06;100.00
36190;BME280;22232;50.914;13.858;2023-08-17T00:52:03;98050.69;;;20.12;100.00
36190;BME280;22232;50.914;13.858;2023-08-17T00:54:32;98049.13;;;20.06;100.00
36190;BME280;22232;50.914;13.858;2023-08-17T00:57:00;98049.75;;;19.98;100.00
36190;BME280;22232;50.914;13.858;2023-08-17T00:59:28;98045.66;;;20.00;100.00
36190;BME280;22232;50.914;13.858;2023-08-17T01:02:03;98043.88;;;19.90;100.00
36190;BME280;22232;50.914;13.858;2023-08-17T01:04:32;98045.50;;;19.86;100.00
36190;BME280;22232;50.914;13.858;2023-08-17T01:07:00;98045.59;;;19.81;100.00
36190;BME280;22232;50.914;13.858;2023-08-17T01:09:28;98042.63;;;19.78;100.00
36190;BME280;22232;50.914;13.858;2023-08-17T01:14:56;98047.75;;;19.79;100.00
36190;BME280;22232;50.914;13.858;2023-08-17T01:17:36;98049.72;;;19.68;100.00
36190;BME280;22232;50.914;13.858;2023-08-17T01:20:08;98040.53;;;19.69;100.00
36190;BME280;22232;50.914;13.858;2023-08-17T01:22:41;98049.69;;;19.74;100.00
36190;BME280;22232;50.914;13.858;2023-08-17T01:25:09;98042.69;;;19.73;100.00
36190;BME280;22232;50.914;13.858;2023-08-17T01:27:40;98039.44;;;19.70;100.00
36190;BME280;22232;50.914;13.858;2023-08-17T01:30:11;98039.63;;;19.79;100.00
36190;BME280;22232;50.914;13.858;2023-08-17T01:32:43;98040.97;;;19.82;100.00
36190;BME280;22232;50.914;13.858;2023-08-17T01:37:49;98055.31;;;19.82;100.00
36190;BME280;22232;50.914;13.858;2023-08-17T01:40:18;98049.72;;;19.68;100.00
36190;BME280;22232;50.914;13.858;2023-08-17T01:42:48;98059.81;;;19.58;100.00
36190;BME280;22232;50.914;13.858;2023-08-17T01:45:16;98060.88;;;19.57;100.00
36190;BME280;22232;50.914;13.858;2023-08-17T01:47:44;98059.00;;;19.57;100.00
36190;BME280;22232;50.914;13.858;2023-08-17T01:50:13;98060.59;;;19.63;100.00
36190;BME280;22232;50.914;13.858;2023-08-17T01:52:41;98065.47;;;19.66;100.00
36190;BME280;22232;50.914;13.858;2023-08-17T01:55:09;98063.03;;;19.60;100.00
36190;BME280;22232;50.914;13.858;2023-08-17T01:57:37;98070.63;;;19.58;100.00
36190;BME280;22232;50.914;13.858;2023-08-17T02:00:05;98075.38;;;19.42;100.00
36190;BME280;22232;50.914;13.858;2023-08-17T02:02:40;98087.66;;;19.24;100.00
36190;BME280;22232;50.914;13.858;2023-08-17T02:05:08;98083.31;;;19.23;100.00
36190;BME280;22232;50.914;13.858;2023-08-17T02:07:37;98075.47;;;19.27;100.00
36190;BME280;22232;50.914;13.858;2023-08-17T02:10:05;98066.22;;;19.33;100.00
36190;BME280;22232;50.914;13.858;2023-08-17T02:12:33;98071.81;;;19.41;100.00
36190;BME280;22232;50.914;13.858;2023-08-17T02:15:02;98076.38;;;19.51;100.00
36190;BME280;22232;50.914;13.858;2023-08-17T02:17:30;98078.53;;;19.54;100.00
36190;BME280;22232;50.914;13.858;2023-08-17T02:19:58;98080.38;;;19.54;100.00
36190;BME280;22232;50.914;13.858;2023-08-17T02:22:26;98075.59;;;19.45;100.00
36190;BME280;22232;50.914;13.858;2023-08-17T02:24:54;98076.09;;;19.47;100.00
36190;BME280;22232;50.914;13.858;2023-08-17T02:27:22;98070.75;;;19.42;100.00
36190;BME280;22232;50.914;13.858;2023-08-17T02:29:50;98068.56;;;19.44;100.00
36190;BME280;22232;50.914;13.858;2023-08-17T02:32:18;98083.41;;;19.47;100.00
36190;BME280;22232;50.914;13.858;2023-08-17T02:34:47;98072.28;;;19.54;100.00
36190;BME280;22232;50.914;13.858;2023-08-17T02:37:14;98083.41;;;19.47;100.00
36190;BME280;22232;50.914;13.858;2023-08-17T02:39:42;98073.16;;;19.44;100.00
36190;BME280;22232;50.914;13.858;2023-08-17T02:42:10;98069.38;;;19.45;100.00
36190;BME280;22232;50.914;13.858;2023-08-17T02:44:38;98071.81;;;19.41;100.00
36190;BME280;22232;50.914;13.858;2023-08-17T02:47:06;98068.31;;;19.41;100.00
36190;BME280;22232;50.914;13.858;2023-08-17T02:49:33;98074.50;;;19.46;100.00
36190;BME280;22232;50.914;13.858;2023-08-17T02:52:01;98073.41;;;19.47;100.00
36190;BME280;22232;50.914;13.858;2023-08-17T02:54:29;98071.78;;;19.52;100.00
36190;BME280;22232;50.914;13.858;2023-08-17T02:56:59;98071.78;;;19.52;100.00
36190;BME280;22232;50.914;13.858;2023-08-17T02:59:27;98069.34;;;19.50;100.00
36190;BME280;22232;50.914;13.858;2023-08-17T03:01:55;98075.88;;;19.44;100.00
36190;BME280;22232;50.914;13.858;2023-08-17T03:04:23;98074.03;;;19.34;100.00
36190;BME280;22232;50.914;13.858;2023-08-17T03:06:51;98073.56;;;19.27;100.00
36190;BME280;22232;50.914;13.858;2023-08-17T03:09:20;98085.75;;;19.24;100.00
36190;BME280;22232;50.914;13.858;2023-08-17T03:11:48;98082.78;;;19.21;100.00
36190;BME280;22232;50.914;13.858;2023-08-17T03:14:16;98091.16;;;19.19;100.00
36190;BME280;22232;50.914;13.858;2023-08-17T03:16:44;98088.22;;;19.21;100.00
36190;BME280;22232;50.914;13.858;2023-08-17T03:19:12;98079.00;;;19.22;100.00
36190;BME280;22232;50.914;13.858;2023-08-17T03:21:42;98073.94;;;19.10;100.00
36190;BME280;22232;50.914;13.858;2023-08-17T03:24:11;98073.06;;;19.20;100.00
36190;BME280;22232;50.914;13.858;2023-08-17T03:26:38;98079.53;;;19.24;100.00
36190;BME280;22232;50.914;13.858;2023-08-17T03:29:08;98084.31;;;19.32;100.00
36190;BME280;22232;50.914;13.858;2023-08-17T03:31:38;98082.75;;;19.26;100.00
36190;BME280;22232;50.914;13.858;2023-08-17T03:34:08;98082.28;;;19.14;100.00
36190;BME280;22232;50.914;13.858;2023-08-17T03:36:35;98079.88;;;19.07;100.00
36190;BME280;22232;50.914;13.858;2023-08-17T03:39:03;98083.16;;;19.04;100.00
36190;BME280;22232;50.914;13.858;2023-08-17T03:41:31;98080.50;;;18.99;100.00
36190;BME280;22232;50.914;13.858;2023-08-17T03:43:59;98076.41;;;19.01;100.00
36190;BME280;22232;50.914;13.858;2023-08-17T03:46:26;98068.03;;;18.98;100.00
36190;BME280;22232;50.914;13.858;2023-08-17T03:48:54;98077.81;;;18.94;100.00
36190;BME280;22232;50.914;13.858;2023-08-17T03:51:22;98086.75;;;18.89;100.00
36190;BME280;22232;50.914;13.858;2023-08-17T03:53:50;98077.56;;;18.90;100.00
36190;BME280;22232;50.914;13.858;2023-08-17T03:56:18;98084.03;;;18.89;100.00
36190;BME280;22232;50.914;13.858;2023-08-17T03:58:46;98072.97;;;18.91;100.00
36190;BME280;22232;50.914;13.858;2023-08-17T04:01:14;98072.97;;;18.91;100.00
36190;BME280;22232;50.914;13.858;2023-08-17T04:03:42;98071.31;;;18.90;100.00
36190;BME280;22232;50.914;13.858;2023-08-17T04:06:10;98066.47;;;18.92;100.00
36190;BME280;22232;50.914;13.858;2023-08-17T04:08:38;98068.34;;;18.96;100.00
36190;BME280;22232;50.914;13.858;2023-08-17T04:11:06;98073.19;;;18.99;100.00
36190;BME280;22232;50.914;13.858;2023-08-17T04:13:33;98071.28;;;19.05;100.00
36190;BME280;22232;50.914;13.858;2023-08-17T04:16:03;98072.59;;;19.08;100.00
36190;BME280;22232;50.914;13.858;2023-08-17T04:18:31;98076.69;;;19.05;100.00
36190;BME280;22232;50.914;13.858;2023-08-17T04:20:59;98065.38;;;18.93;100.00
36190;BME280;22232;50.914;13.858;2023-08-17T04:23:27;98072.72;;;18.87;100.00
36190;BME280;22232;50.914;13.858;2023-08-17T04:25:55;98072.16;;;18.85;100.00
36190;BME280;22232;50.914;13.858;2023-08-17T04:28:23;98085.94;;;18.89;100.00
36190;BME280;22232;50.914;13.858;2023-08-17T04:30:52;98083.47;;;18.92;100.00
36190;BME280;22232;50.914;13.858;2023-08-17T04:33:20;98068.59;;;18.95;100.00
36190;BME280;22232;50.914;13.858;2023-08-17T04:35:48;98077.75;;;19.04;100.00
36190;BME280;22232;50.914;13.858;2023-08-17T04:38:16;98073.66;;;19.12;100.00
36190;BME280;22232;50.914;13.858;2023-08-17T04:40:45;98078.19;;;19.21;100.00
36190;BME280;22232;50.914;13.858;2023-08-17T04:43:14;98084.63;;;19.31;100.00
36190;BME280;22232;50.914;13.858;2023-08-17T04:45:41;98078.63;;;19.39;100.00
36190;BME280;22232;50.914;13.858;2023-08-17T04:48:09;98079.91;;;19.46;100.00
36190;BME280;22232;50.914;13.858;2023-08-17T04:50:37;98088.44;;;19.69;100.00
36190;BME280;22232;50.914;13.858;2023-08-17T04:53:05;98095.47;;;20.28;100.00
36190;BME280;22232;50.914;13.858;2023-08-17T04:55:34;98095.53;;;20.95;100.00
36190;BME280;22232;50.914;13.858;2023-08-17T04:58:02;98102.41;;;21.30;100.00
36190;BME280;22232;50.914;13.858;2023-08-17T05:00:30;98090.88;;;21.76;100.00
36190;BME280;22232;50.914;13.858;2023-08-17T05:02:59;98098.09;;;22.14;100.00
36190;BME280;22232;50.914;13.858;2023-08-17T05:05:32;98096.66;;;22.49;100.00
36190;BME280;22232;50.914;13.858;2023-08-17T05:08:01;98094.53;;;22.32;100.00
36190;BME280;22232;50.914;13.858;2023-08-17T05:10:29;98098.19;;;22.55;100.00
36190;BME280;22232;50.914;13.858;2023-08-17T05:12:57;98102.13;;;22.49;100.00
36190;BME280;22232;50.914;13.858;2023-08-17T05:15:25;98103.09;;;22.81;100.00
36190;BME280;22232;50.914;13.858;2023-08-17T05:17:53;98102.00;;;22.96;100.00
36190;BME280;22232;50.914;13.858;2023-08-17T05:20:21;98094.31;;;23.11;100.00
36190;BME280;22232;50.914;13.858;2023-08-17T05:22:49;98092.16;;;23.36;100.00
36190;BME280;22232;50.914;13.858;2023-08-17T05:25:17;98093.16;;;23.63;100.00
36190;BME280;22232;50.914;13.858;2023-08-17T05:27:45;98092.50;;;24.02;100.00
36190;BME280;22232;50.914;13.858;2023-08-17T05:30:13;98106.75;;;24.30;100.00
36190;BME280;22232;50.914;13.858;2023-08-17T05:32:41;98108.09;;;24.41;100.00
36190;BME280;22232;50.914;13.858;2023-08-17T05:35:11;98118.50;;;24.70;100.00
36190;BME280;22232;50.914;13.858;2023-08-17T05:37:39;98114.25;;;24.95;100.00
36190;BME280;22232;50.914;13.858;2023-08-17T05:40:07;98106.53;;;24.98;100.00
36190;BME280;22232;50.914;13.858;2023-08-17T05:42:36;98111.53;;;24.56;100.00
36190;BME280;22232;50.914;13.858;2023-08-17T05:45:04;98119.81;;;24.11;100.00
36190;BME280;22232;50.914;13.858;2023-08-17T05:47:32;98116.63;;;23.50;100.00
36190;BME280;22232;50.914;13.858;2023-08-17T05:50:00;98114.88;;;23.18;100.00
36190;BME280;22232;50.914;13.858;2023-08-17T05:52:28;98109.53;;;22.85;100.00
36190;BME280;22232;50.914;13.858;2023-08-17T05:54:56;98129.47;;;22.39;100.00
36190;BME280;22232;50.914;13.858;2023-08-17T05:57:24;98122.09;;;21.93;100.00
36190;BME280;22232;50.914;13.858;2023-08-17T05:59:52;98126.34;;;21.23;100.00
36190;BME280;22232;50.914;13.858;2023-08-17T06:02:20;98131.34;;;20.73;100.00
36190;BME280;22232;50.914;13.858;2023-08-17T06:04:48;98135.66;;;20.74;100.00
36190;BME280;22232;50.914;13.858;2023-08-17T06:07:16;98145.19;;;20.91;100.00
36190;BME280;22232;50.914;13.858;2023-08-17T06:09:43;98154.66;;;20.93;100.00
36190;BME280;22232;50.914;13.858;2023-08-17T06:12:11;98162.88;;;21.12;100.00
36190;BME280;22232;50.914;13.858;2023-08-17T06:14:39;98165.00;;;21.15;100.00
36190;BME280;22232;50.914;13.858;2023-08-17T06:17:07;98164.28;;;21.28;100.00
36190;BME280;22232;50.914;13.858;2023-08-17T06:19:35;98158.13;;;21.42;100.00
36190;BME280;22232;50.914;13.858;2023-08-17T06:22:03;98167.19;;;21.56;100.00
36190;BME280;22232;50.914;13.858;2023-08-17T06:24:31;98161.59;;;21.66;100.00
36190;BME280;22232;50.914;13.858;2023-08-17T06:26:59;98159.19;;;21.65;100.00
36190;BME280;22232;50.914;13.858;2023-08-17T06:29:26;98153.19;;;21.49;100.00
36190;BME280;22232;50.914;13.858;2023-08-17T06:31:54;98168.13;;;21.46;100.00
36190;BME280;22232;50.914;13.858;2023-08-17T06:34:22;98168.63;;;21.48;100.00
36190;BME280;22232;50.914;13.858;2023-08-17T06:37:02;98165.47;;;21.41;100.00
36190;BME280;22232;50.914;13.858;2023-08-17T06:39:30;98167.34;;;21.22;100.00
36190;BME280;22232;50.914;13.858;2023-08-17T06:41:58;98172.59;;;21.13;100.00
36190;BME280;22232;50.914;13.858;2023-08-17T06:44:26;98178.31;;;21.36;100.00
36190;BME280;22232;50.914;13.858;2023-08-17T06:46:53;98181.28;;;21.58;100.00
36190;BME280;22232;50.914;13.858;2023-08-17T06:49:21;98183.56;;;21.70;100.00
36190;BME280;22232;50.914;13.858;2023-08-17T06:51:49;98179.72;;;21.71;100.00
36190;BME280;22232;50.914;13.858;2023-08-17T06:54:17;98174.09;;;22.00;100.00
36190;BME280;22232;50.914;13.858;2023-08-17T06:56:44;98178.59;;;21.91;100.00
36190;BME280;22232;50.914;13.858;2023-08-17T06:59:12;98165.09;;;22.37;100.00
36190;BME280;22232;50.914;13.858;2023-08-17T07:01:40;98162.41;;;23.34;100.00
36190;BME280;22232;50.914;13.858;2023-08-17T07:04:08;98158.19;;;24.00;100.00
36190;BME280;22232;50.914;13.858;2023-08-17T07:06:35;98154.91;;;24.66;100.00
36190;BME280;22232;50.914;13.858;2023-08-17T07:09:03;98154.78;;;25.20;100.00
36190;BME280;22232;50.914;13.858;2023-08-17T07:11:32;98160.56;;;25.18;100.00
36190;BME280;22232;50.914;13.858;2023-08-17T07:14:00;98161.06;;;25.37;100.00
36190;BME280;22232;50.914;13.858;2023-08-17T07:16:28;98155.69;;;25.06;100.00
36190;BME280;22232;50.914;13.858;2023-08-17T07:18:56;98163.25;;;24.69;100.00
36190;BME280;22232;50.914;13.858;2023-08-17T07:21:24;98160.25;;;24.80;100.00
36190;BME280;22232;50.914;13.858;2023-08-17T07:23:54;98166.72;;;25.32;100.00
36190;BME280;22232;50.914;13.858;2023-08-17T07:26:23;98167.38;;;24.98;100.00
36190;BME280;22232;50.914;13.858;2023-08-17T07:28:50;98171.09;;;25.02;100.00
36190;BME280;22232;50.914;13.858;2023-08-17T07:31:18;98168.31;;;25.42;100.00
36190;BME280;22232;50.914;13.858;2023-08-17T07:33:46;98171.00;;;25.25;100.00
36190;BME280;22232;50.914;13.858;2023-08-17T07:36:14;98170.06;;;25.38;100.00
36190;BME280;22232;50.914;13.858;2023-08-17T07:38:42;98170.41;;;25.36;100.00
36190;BME280;22232;50.914;13.858;2023-08-17T07:41:09;98171.19;;;24.88;100.00
36190;BME280;22232;50.914;13.858;2023-08-17T07:43:37;98167.69;;;25.54;100.00
36190;BME280;22232;50.914;13.858;2023-08-17T07:46:05;98159.88;;;25.87;100.00
36190;BME280;22232;50.914;13.858;2023-08-17T07:48:33;98147.84;;;26.52;100.00
36190;BME280;22232;50.914;13.858;2023-08-17T07:51:01;98160.44;;;26.36;100.00
36190;BME280;22232;50.914;13.858;2023-08-17T07:53:28;98151.84;;;26.64;100.00
36190;BME280;22232;50.914;13.858;2023-08-17T07:55:56;98143.50;;;26.90;100.00
36190;BME280;22232;50.914;13.858;2023-08-17T07:58:24;98140.81;;;27.11;100.00
36190;BME280;22232;50.914;13.858;2023-08-17T08:00:52;98137.84;;;26.57;100.00
36190;BME280;22232;50.914;13.858;2023-08-17T08:03:20;98138.78;;;26.69;100.00
36190;BME280;22232;50.914;13.858;2023-08-17T08:05:48;98132.28;;;27.12;100.00
36190;BME280;22232;50.914;13.858;2023-08-17T08:08:15;98127.50;;;27.93;100.00
36190;BME280;22232;50.914;13.858;2023-08-17T08:10:45;98124.50;;;28.52;95.86
36190;BME280;22232;50.914;13.858;2023-08-17T08:13:13;98121.88;;;28.93;92.75
36190;BME280;22232;50.914;13.858;2023-08-17T08:15:43;98124.84;;;29.24;87.12
36190;BME280;22232;50.914;13.858;2023-08-17T08:18:10;98121.88;;;29.30;83.92
36190;BME280;22232;50.914;13.858;2023-08-17T08:20:38;98118.34;;;29.69;85.46
36190;BME280;22232;50.914;13.858;2023-08-17T08:23:06;98109.53;;;29.11;82.00
36190;BME280;22232;50.914;13.858;2023-08-17T08:25:34;98105.75;;;28.54;90.20
36190;BME280;22232;50.914;13.858;2023-08-17T08:31:10;98108.75;;;29.11;82.91
36190;BME280;22232;50.914;13.858;2023-08-17T08:33:38;98116.72;;;29.28;82.59
36190;BME280;22232;50.914;13.858;2023-08-17T08:36:05;98112.22;;;29.48;81.90
36190;BME280;22232;50.914;13.858;2023-08-17T08:38:33;98111.09;;;29.24;77.73
36190;BME280;22232;50.914;13.858;2023-08-17T08:41:02;98109.41;;;28.95;83.44
36190;BME280;22232;50.914;13.858;2023-08-17T08:43:30;98101.53;;;28.69;84.58
36190;BME280;22232;50.914;13.858;2023-08-17T08:45:59;98107.69;;;28.78;83.37
36190;BME280;22232;50.914;13.858;2023-08-17T08:48:27;98104.38;;;28.73;89.56
36190;BME280;22232;50.914;13.858;2023-08-17T08:50:59;98097.66;;;28.83;88.32
36190;BME280;22232;50.914;13.858;2023-08-17T08:53:38;98100.72;;;29.18;83.96
36190;BME280;22232;50.914;13.858;2023-08-17T08:56:11;98102.88;;;28.75;82.81
36190;BME280;22232;50.914;13.858;2023-08-17T08:58:41;98095.69;;;28.71;81.12
36190;BME280;22232;50.914;13.858;2023-08-17T09:01:10;98099.69;;;28.49;85.14
36190;BME280;22232;50.914;13.858;2023-08-17T09:03:38;98112.31;;;28.29;84.27
36190;BME280;22232;50.914;13.858;2023-08-17T09:06:07;98102.81;;;28.26;84.07
36190;BME280;22232;50.914;13.858;2023-08-17T09:08:36;98097.94;;;27.99;91.55
36190;BME280;22232;50.914;13.858;2023-08-17T09:11:08;98097.53;;;27.55;91.43
36190;BME280;22232;50.914;13.858;2023-08-17T09:13:36;98100.19;;;27.84;89.08
36190;BME280;22232;50.914;13.858;2023-08-17T09:16:04;98098.16;;;28.39;86.36
36190;BME280;22232;50.914;13.858;2023-08-17T09:18:34;98097.22;;;28.23;87.95
36190;BME280;22232;50.914;13.858;2023-08-17T09:21:05;98095.03;;;28.16;87.38
36190;BME280;22232;50.914;13.858;2023-08-17T09:23:33;98095.97;;;27.45;95.05
36190;BME280;22232;50.914;13.858;2023-08-17T09:26:10;98085.84;;;27.66;99.31
36190;BME280;22232;50.914;13.858;2023-08-17T09:28:38;98094.72;;;27.63;96.40
36190;BME280;22232;50.914;13.858;2023-08-17T09:31:06;98095.44;;;28.06;91.21
36190;BME280;22232;50.914;13.858;2023-08-17T09:33:34;98090.72;;;27.19;96.94
36190;BME280;22232;50.914;13.858;2023-08-17T09:36:02;98093.53;;;27.02;100.00
36190;BME280;22232;50.914;13.858;2023-08-17T09:38:30;98091.03;;;27.17;100.00
36190;BME280;22232;50.914;13.858;2023-08-17T09:40:58;98085.09;;;27.15;98.03
36190;BME280;22232;50.914;13.858;2023-08-17T09:43:26;98082.19;;;26.91;100.00
36190;BME280;22232;50.914;13.858;2023-08-17T09:45:58;98085.97;;;27.28;99.39
36190;BME280;22232;50.914;13.858;2023-08-17T09:48:27;98088.72;;;27.49;97.65
36190;BME280;22232;50.914;13.858;2023-08-17T09:50:59;98087.31;;;27.22;98.46
36190;BME280;22232;50.914;13.858;2023-08-17T09:53:29;98088.19;;;27.05;100.00
36190;BME280;22232;50.914;13.858;2023-08-17T09:55:57;98078.84;;;27.69;98.62
36190;BME280;22232;50.914;13.858;2023-08-17T09:58:26;98084.59;;;27.97;92.65
36190;BME280;22232;50.914;13.858;2023-08-17T10:00:58;98083.94;;;28.12;94.38
36190;BME280;22232;50.914;13.858;2023-08-17T10:03:33;98083.66;;;27.72;96.73
36190;BME280;22232;50.914;13.858;2023-08-17T10:06:06;98078.63;;;27.20;97.10
36190;BME280;22232;50.914;13.858;2023-08-17T10:08:42;98080.41;;;26.86;100.00
36190;BME280;22232;50.914;13.858;2023-08-17T10:11:12;98075.09;;;27.11;100.00
36190;BME280;22232;50.914;13.858;2023-08-17T10:14:02;98076.69;;;26.91;100.00
36190;BME280;22232;50.914;13.858;2023-08-17T10:16:44;98067.44;;;27.04;100.00
36190;BME280;22232;50.914;13.858;2023-08-17T10:22:03;98065.03;;;27.86;96.54
36190;BME280;22232;50.914;13.858;2023-08-17T10:24:34;98056.31;;;27.30;99.85
36190;BME280;22232;50.914;13.858;2023-08-17T10:27:05;98056.56;;;27.37;98.81
36190;BME280;22232;50.914;13.858;2023-08-17T10:29:33;98056.56;;;27.58;100.00
36190;BME280;22232;50.914;13.858;2023-08-17T10:32:02;98060.78;;;27.35;97.86
36190;BME280;22232;50.914;13.858;2023-08-17T10:34:30;98056.09;;;27.35;100.00
36190;BME280;22232;50.914;13.858;2023-08-17T10:36:59;98061.09;;;27.12;98.53
36190;BME280;22232;50.914;13.858;2023-08-17T10:39:29;98055.78;;;27.37;100.00
36190;BME280;22232;50.914;13.858;2023-08-17T10:41:58;98056.31;;;27.51;100.00
36190;BME280;22232;50.914;13.858;2023-08-17T10:44:58;98046.38;;;27.80;100.00
36190;BME280;22232;50.914;13.858;2023-08-17T10:47:29;98045.66;;;28.04;89.23
36190;BME280;22232;50.914;13.858;2023-08-17T10:50:19;98044.41;;;28.13;91.51
36190;BME280;22232;50.914;13.858;2023-08-17T10:53:12;98050.53;;;27.86;92.94
36190;BME280;22232;50.914;13.858;2023-08-17T10:55:42;98048.47;;;27.95;93.66
36190;BME280;22232;50.914;13.858;2023-08-17T10:58:11;98055.75;;;28.24;93.66
36190;BME280;22232;50.914;13.858;2023-08-17T11:00:42;98039.63;;;28.35;92.12
36190;BME280;22232;50.914;13.858;2023-08-17T11:03:19;98039.75;;;28.88;94.25
36190;BME280;22232;50.914;13.858;2023-08-17T11:05:50;98044.78;;;28.98;77.83
36190;BME280;22232;50.914;13.858;2023-08-17T11:08:50;98041.25;;;29.38;80.15
36190;BME280;22232;50.914;13.858;2023-08-17T11:11:20;98038.50;;;29.38;75.92
36190;BME280;22232;50.914;13.858;2023-08-17T11:13:48;98038.16;;;29.39;75.23
36190;BME280;22232;50.914;13.858;2023-08-17T11:16:17;98031.81;;;29.79;75.18
36190;BME280;22232;50.914;13.858;2023-08-17T11:18:47;98035.41;;;29.95;71.58
36190;BME280;22232;50.914;13.858;2023-08-17T11:21:18;98028.09;;;30.31;68.32
36190;BME280;22232;50.914;13.858;2023-08-17T11:23:46;98032.22;;;30.57;60.01
36190;BME280;22232;50.914;13.858;2023-08-17T11:26:18;98034.97;;;30.73;57.54
36190;BME280;22232;50.914;13.858;2023-08-17T11:28:47;98028.44;;;30.97;59.97
36190;BME280;22232;50.914;13.858;2023-08-17T11:31:15;98033.03;;;31.08;59.18
36190;BME280;22232;50.914;13.858;2023-08-17T11:33:45;98027.47;;;30.38;58.71
36190;BME280;22232;50.914;13.858;2023-08-17T11:36:14;98020.31;;;30.69;55.88
36190;BME280;22232;50.914;13.858;2023-08-17T11:38:43;98030.09;;;30.66;59.28
36190;BME280;22232;50.914;13.858;2023-08-17T11:41:11;98028.00;;;30.44;60.56
36190;BME280;22232;50.914;13.858;2023-08-17T11:43:42;98019.53;;;30.68;58.76
36190;BME280;22232;50.914;13.858;2023-08-17T11:46:10;98011.69;;;30.70;61.25
36190;BME280;22232;50.914;13.858;2023-08-17T11:48:39;98007.19;;;30.62;59.39
36190;BME280;22232;50.914;13.858;2023-08-17T11:51:06;98010.69;;;30.94;60.65
36190;BME280;22232;50.914;13.858;2023-08-17T11:53:35;98013.47;;;30.78;58.42
36190;BME280;22232;50.914;13.858;2023-08-17T11:56:04;98010.69;;;30.94;58.79
36190;BME280;22232;50.914;13.858;2023-08-17T11:58:45;98008.16;;;31.24;58.16
36190;BME280;22232;50.914;13.858;2023-08-17T12:01:16;98001.63;;;31.13;59.53
36190;BME280;22232;50.914;13.858;2023-08-17T12:03:44;98002.28;;;31.06;57.60
36190;BME280;22232;50.914;13.858;2023-08-17T12:06:13;98000.03;;;30.93;57.08
36190;BME280;22232;50.914;13.858;2023-08-17T12:08:43;98006.28;;;30.90;56.18
36190;BME280;22232;50.914;13.858;2023-08-17T12:11:13;98000.59;;;30.67;56.21
36190;BME280;22232;50.914;13.858;2023-08-17T12:13:42;97991.78;;;30.93;57.04
36190;BME280;22232;50.914;13.858;2023-08-17T12:16:49;98002.88;;;30.96;56.11
36190;BME280;22232;50.914;13.858;2023-08-17T12:19:19;97996.34;;;31.24;56.93
36190;BME280;22232;50.914;13.858;2023-08-17T12:21:48;97996.63;;;31.19;56.84
36190;BME280;22232;50.914;13.858;2023-08-17T12:24:16;97996.13;;;31.13;56.44
36190;BME280;22232;50.914;13.858;2023-08-17T12:26:47;97994.31;;;31.21;55.44
36190;BME280;22232;50.914;13.858;2023-08-17T12:29:14;97992.69;;;31.36;55.96
36190;BME280;22232;50.914;13.858;2023-08-17T12:31:42;97991.50;;;31.56;56.36
36190;BME280;22232;50.914;13.858;2023-08-17T12:34:10;97992.94;;;31.69;55.29
36190;BME280;22232;50.914;13.858;2023-08-17T12:36:38;97993.41;;;31.94;52.43
36190;BME280;22232;50.914;13.858;2023-08-17T12:39:05;97987.59;;;31.57;54.89
36190;BME280;22232;50.914;13.858;2023-08-17T12:41:37;97983.66;;;31.58;54.14
36190;BME280;22232;50.914;13.858;2023-08-17T12:44:05;97984.53;;;31.23;54.09
36190;BME280;22232;50.914;13.858;2023-08-17T12:46:33;97985.25;;;31.59;55.33
36190;BME280;22232;50.914;13.858;2023-08-17T12:49:02;97980.78;;;31.51;54.29
36190;BME280;22232;50.914;13.858;2023-08-17T12:51:30;97970.75;;;31.23;56.42
36190;BME280;22232;50.914;13.858;2023-08-17T12:53:58;97972.94;;;31.14;54.87
36190;BME280;22232;50.914;13.858;2023-08-17T12:56:26;97966.34;;;30.99;53.90
36190;BME280;22232;50.914;13.858;2023-08-17T12:58:53;97970.25;;;31.18;56.31
36190;BME280;22232;50.914;13.858;2023-08-17T13:01:21;97962.56;;;30.88;57.97
36190;BME280;22232;50.914;13.858;2023-08-17T13:03:48;97961.09;;;30.94;55.92